Time;durP1;ratioP1;P1;durP2;ratioP2;P2;SDS_P1;SDS_P2;PMS_P1;PMS_P2;Temp;Humidity;BMP_temperature;BMP_pressure;BME280_temperature;BME280_humidity;BME280_pressure;Samples;Min_cycle;Max_cycle;Signal;HPM_P1;HPM_P2
2023/08/26 00:00:09;;;;;;;4.15;2.90;;;23.40;76.40;;;;;;5052387;28;20095;-68
2023/08/26 00:02:34;;;;;;;4.18;2.88;;;23.40;76.30;;;;;;5051617;28;20500;-67
2023/08/26 00:05:00;;;;;;;4.15;2.92;;;23.40;76.40;;;;;;5052340;28;20107;-67
2023/08/26 00:07:26;;;;;;;5.07;2.92;;;23.40;76.30;;;;;;5052618;28;20128;-67
2023/08/26 00:09:51;;;;;;;5.18;3.40;;;23.40;76.30;;;;;;5051538;28;20082;-67
2023/08/26 00:12:17;;;;;;;4.93;3.15;;;23.40;76.30;;;;;;5052125;28;20045;-67
2023/08/26 00:14:43;;;;;;;4.50;3.03;;;23.40;76.30;;;;;;5052416;28;20040;-67
2023/08/26 00:17:08;;;;;;;3.83;2.83;;;23.30;76.30;;;;;;5051766;28;20036;-67
2023/08/26 00:19:34;;;;;;;4.22;3.67;;;23.40;76.30;;;;;;5052283;28;20053;-67
2023/08/26 00:22:00;;;;;;;4.25;2.97;;;23.40;76.30;;;;;;5051722;28;20048;-68
2023/08/26 00:24:26;;;;;;;4.15;2.92;;;23.40;76.30;;;;;;5052444;28;20089;-67
2023/08/26 00:26:51;;;;;;;5.22;3.15;;;23.30;76.20;;;;;;5051873;28;20045;-67
2023/08/26 00:29:17;;;;;;;4.90;2.85;;;23.40;76.30;;;;;;5052065;28;20040;-67
2023/08/26 00:31:43;;;;;;;5.38;3.08;;;23.40;76.20;;;;;;5052276;28;20171;-67
2023/08/26 00:34:08;;;;;;;4.90;2.90;;;23.30;76.30;;;;;;5051402;28;20106;-67
2023/08/26 00:36:34;;;;;;;4.10;3.13;;;23.30;76.20;;;;;;5050829;28;20488;-68
2023/08/26 00:39:00;;;;;;;5.80;2.92;;;23.30;76.20;;;;;;5052528;28;20045;-68
2023/08/26 00:41:26;;;;;;;3.92;3.15;;;23.30;76.20;;;;;;5050891;28;20111;-68
2023/08/26 00:43:52;;;;;;;3.67;2.80;;;23.30;76.20;;;;;;5050707;28;20489;-68
2023/08/26 00:46:17;;;;;;;3.58;2.72;;;23.30;76.20;;;;;;5052478;28;20049;-67
2023/08/26 00:48:43;;;;;;;4.05;2.92;;;23.30;76.30;;;;;;5051879;28;20045;-67
2023/08/26 00:51:09;;;;;;;4.15;2.83;;;23.30;76.20;;;;;;5050265;28;20069;-67
2023/08/26 00:53:34;;;;;;;4.47;2.90;;;23.30;76.30;;;;;;5051122;28;20099;-68
2023/08/26 00:56:00;;;;;;;4.30;2.70;;;23.30;76.30;;;;;;5055383;28;20043;-68
2023/08/26 00:58:26;;;;;;;4.65;2.88;;;23.30;76.30;;;;;;5054008;28;20053;-67
2023/08/26 01:00:51;;;;;;;3.80;2.72;;;23.30;76.20;;;;;;5054808;28;20112;-68
2023/08/26 01:03:17;;;;;;;3.53;2.80;;;23.30;76.20;;;;;;5070264;28;20131;-68
2023/08/26 01:05:43;;;;;;;3.83;2.60;;;23.30;76.10;;;;;;5054578;28;20473;-67
2023/08/26 01:08:08;;;;;;;3.13;2.40;;;23.30;76.20;;;;;;5055773;28;20102;-68
2023/08/26 01:10:34;;;;;;;3.38;2.65;;;23.30;76.20;;;;;;5053977;28;20452;-68
2023/08/26 01:13:01;;;;;;;4.47;2.67;;;23.30;76.10;;;;;;5054960;28;20041;-67
2023/08/26 01:15:27;;;;;;;4.18;2.55;;;23.30;76.20;;;;;;5037415;28;20115;-67
2023/08/26 01:17:53;;;;;;;4.88;2.97;;;23.20;76.10;;;;;;5037616;28;20072;-67
2023/08/26 01:20:18;;;;;;;3.90;2.63;;;23.30;76.10;;;;;;5036781;28;20477;-67
2023/08/26 01:22:44;;;;;;;5.10;3.25;;;23.30;76.10;;;;;;5070713;28;20610;-67
2023/08/26 01:25:10;;;;;;;4.03;2.90;;;23.30;76.00;;;;;;5053229;28;20076;-67
2023/08/26 01:27:35;;;;;;;4.55;2.95;;;23.20;76.00;;;;;;5055426;28;20037;-67
2023/08/26 01:30:01;;;;;;;3.58;2.60;;;23.30;76.70;;;;;;5055783;28;20374;-68
2023/08/26 01:32:30;;;;;;;3.97;2.60;;;23.20;76.00;;;;;;5054111;28;20052;-68
2023/08/26 01:34:56;;;;;;;3.75;2.80;;;23.20;75.90;;;;;;5054847;28;20041;-68
2023/08/26 01:37:23;;;;;;;3.47;2.55;;;23.20;76.00;;;;;;5053579;28;20488;-67
2023/08/26 01:39:50;;;;;;;4.00;2.47;;;23.20;76.00;;;;;;5036636;28;20068;-67
2023/08/26 01:42:18;;;;;;;3.80;2.70;;;23.20;76.00;;;;;;5054164;28;20065;-68
2023/08/26 01:44:44;;;;;;;3.42;2.50;;;23.20;75.90;;;;;;5054825;28;20512;-68
2023/08/26 01:47:09;;;;;;;3.97;2.80;;;23.20;75.90;;;;;;5069576;28;20032;-68
2023/08/26 01:49:35;;;;;;;3.83;2.65;;;23.20;75.90;;;;;;5053823;28;20098;-68
2023/08/26 01:52:00;;;;;;;4.75;2.70;;;23.20;75.90;;;;;;5054810;28;20041;-68
2023/08/26 01:54:26;;;;;;;3.65;2.60;;;23.20;75.90;;;;;;5054014;28;20567;-67
2023/08/26 01:56:52;;;;;;;4.40;2.67;;;23.20;75.90;;;;;;5055312;28;20044;-68
2023/08/26 01:59:17;;;;;;;3.83;2.67;;;23.20;75.80;;;;;;5053607;28;20045;-68
2023/08/26 02:01:43;;;;;;;4.50;2.75;;;23.20;75.80;;;;;;5053678;28;20442;-68
2023/08/26 02:04:08;;;;;;;2.90;2.40;;;23.20;75.70;;;;;;5054873;28;20468;-68
2023/08/26 02:06:34;;;;;;;4.20;2.67;;;23.20;75.70;;;;;;5053406;28;20041;-68
2023/08/26 02:09:00;;;;;;;4.63;2.65;;;23.10;75.70;;;;;;5052550;28;20048;-68
2023/08/26 02:11:25;;;;;;;3.42;2.40;;;23.20;75.70;;;;;;5053071;28;20036;-68
2023/08/26 02:13:51;;;;;;;3.75;2.50;;;23.20;75.70;;;;;;5054647;28;20037;-68
2023/08/26 02:16:16;;;;;;;2.72;2.20;;;23.20;75.70;;;;;;5053849;28;20041;-68
2023/08/26 02:18:42;;;;;;;3.22;2.50;;;23.10;75.70;;;;;;5054423;28;20469;-68
2023/08/26 02:21:08;;;;;;;3.35;2.30;;;23.10;75.70;;;;;;5053451;28;20134;-68
2023/08/26 02:23:34;;;;;;;4.15;2.95;;;23.10;75.70;;;;;;5053413;28;20045;-68
2023/08/26 02:26:00;;;;;;;2.88;2.38;;;23.20;75.70;;;;;;5054013;28;20029;-68
2023/08/26 02:28:26;;;;;;;3.80;2.42;;;23.10;75.70;;;;;;5054407;28;20041;-67
2023/08/26 02:30:51;;;;;;;3.08;2.30;;;23.10;75.70;;;;;;5053542;28;20408;-67
2023/08/26 02:33:17;;;;;;;3.33;2.50;;;23.10;75.70;;;;;;5054548;28;20085;-67
2023/08/26 02:35:46;;;;;;;3.10;2.10;;;23.20;75.70;;;;;;5053050;28;20143;-68
2023/08/26 02:38:12;;;;;;;3.58;2.28;;;23.10;75.60;;;;;;5053834;28;20057;-68
2023/08/26 02:40:38;;;;;;;3.78;2.65;;;23.10;75.70;;;;;;5053950;28;20056;-68
2023/08/26 02:43:03;;;;;;;3.97;2.40;;;23.10;75.60;;;;;;5051609;28;20041;-68
2023/08/26 02:45:30;;;;;;;2.80;2.28;;;23.10;75.60;;;;;;5053955;28;20116;-68
2023/08/26 02:47:57;;;;;;;3.15;2.30;;;23.10;75.60;;;;;;5036017;28;20056;-68
2023/08/26 02:50:24;;;;;;;3.42;2.65;;;23.10;75.60;;;;;;5053541;28;20049;-69
2023/08/26 02:52:50;;;;;;;3.50;2.38;;;23.10;75.60;;;;;;5053692;28;20067;-68
2023/08/26 02:55:15;;;;;;;3.47;2.30;;;23.10;75.60;;;;;;5052765;28;20467;-68
2023/08/26 02:57:41;;;;;;;3.08;2.28;;;23.10;75.50;;;;;;5052688;28;20047;-68
2023/08/26 03:00:08;;;;;;;3.40;2.63;;;23.10;75.50;;;;;;5054391;28;20037;-68
2023/08/26 03:02:34;;;;;;;2.55;2.20;;;23.10;76.10;;;;;;5052291;28;20060;-68
2023/08/26 03:04:59;;;;;;;2.92;1.90;;;23.10;75.50;;;;;;5051575;28;20041;-68
2023/08/26 03:07:25;;;;;;;2.85;2.08;;;23.10;75.50;;;;;;5053503;28;20056;-68
2023/08/26 03:09:50;;;;;;;3.10;2.28;;;23.10;75.50;;;;;;5053186;28;20119;-68
2023/08/26 03:12:16;;;;;;;3.63;2.30;;;23.10;75.50;;;;;;5051187;28;20072;-68
2023/08/26 03:14:42;;;;;;;2.92;2.03;;;23.10;75.50;;;;;;5052899;28;20374;-68
2023/08/26 03:17:08;;;;;;;3.22;2.10;;;23.00;75.40;;;;;;5052741;28;20072;-67
2023/08/26 03:19:33;;;;;;;4.80;2.15;;;23.00;75.40;;;;;;5052640;28;20056;-67
2023/08/26 03:21:59;;;;;;;3.58;2.58;;;23.00;75.40;;;;;;5052033;28;20107;-67
2023/08/26 03:24:26;;;;;;;2.55;1.95;;;23.00;75.90;;;;;;5053521;28;20459;-67
2023/08/26 03:26:51;;;;;;;3.63;2.28;;;23.00;75.40;;;;;;5052412;28;20048;-68
2023/08/26 03:29:17;;;;;;;3.13;2.03;;;23.00;75.40;;;;;;5053334;28;20045;-68
2023/08/26 03:31:43;;;;;;;3.63;1.92;;;23.00;75.30;;;;;;5051554;28;20465;-67
2023/08/26 03:34:08;;;;;;;2.83;2.00;;;23.00;75.30;;;;;;5065316;28;20080;-68
2023/08/26 03:36:34;;;;;;;2.90;2.13;;;23.00;75.20;;;;;;5052318;28;20509;-68
2023/08/26 03:39:00;;;;;;;2.95;2.10;;;23.00;75.20;;;;;;5052319;28;20060;-68
2023/08/26 03:41:25;;;;;;;2.67;2.00;;;23.00;75.20;;;;;;5053112;28;20218;-68
2023/08/26 03:43:51;;;;;;;3.53;2.25;;;23.00;75.20;;;;;;5052502;28;20048;-68
2023/08/26 03:46:16;;;;;;;2.78;2.00;;;23.00;75.20;;;;;;5052573;28;20044;-68
2023/08/26 03:48:42;;;;;;;2.92;1.92;;;23.00;75.20;;;;;;5052917;28;20543;-68
2023/08/26 03:51:08;;;;;;;3.03;2.10;;;23.00;75.20;;;;;;5052944;28;20033;-67
2023/08/26 03:53:33;;;;;;;2.80;2.00;;;23.00;75.20;;;;;;5050839;28;20045;-68
2023/08/26 03:55:59;;;;;;;3.17;2.10;;;22.90;75.20;;;;;;5052713;28;20047;-68
2023/08/26 03:58:26;;;;;;;3.33;2.20;;;23.00;75.20;;;;;;5051587;28;20056;-67
2023/08/26 04:01:02;;;;;;;2.83;2.05;;;23.00;75.30;;;;;;5054149;28;20086;-67
2023/08/26 04:03:27;;;;;;;4.13;2.40;;;23.00;75.20;;;;;;5066481;28;20048;-68
2023/08/26 04:05:58;;;;;;;2.50;1.75;;;23.00;75.20;;;;;;5055700;28;20075;-68
2023/08/26 04:08:24;;;;;;;2.95;2.10;;;22.90;75.10;;;;;;5051513;28;20037;-68
2023/08/26 04:10:54;;;;;;;4.30;2.10;;;23.00;75.20;;;;;;5052447;28;20131;-68
2023/08/26 04:13:24;;;;;;;3.03;2.30;;;22.90;75.10;;;;;;5052269;28;20041;-68
2023/08/26 04:15:55;;;;;;;2.15;1.75;;;23.00;75.10;;;;;;5050182;28;20041;-68
2023/08/26 04:18:22;;;;;;;2.15;1.55;;;22.90;75.10;;;;;;5052598;28;20051;-68
2023/08/26 04:20:48;;;;;;;2.63;2.10;;;23.00;75.20;;;;;;5052024;28;20044;-68
2023/08/26 04:23:13;;;;;;;3.40;2.08;;;23.00;75.10;;;;;;5051708;28;20039;-68
2023/08/26 04:25:40;;;;;;;2.92;1.80;;;22.90;75.10;;;;;;5051908;28;20048;-68
2023/08/26 04:28:06;;;;;;;3.30;1.85;;;22.90;75.10;;;;;;5051509;28;20075;-68
2023/08/26 04:30:31;;;;;;;3.42;2.00;;;23.00;75.10;;;;;;5051017;28;20099;-67
2023/08/26 04:32:57;;;;;;;2.28;1.90;;;22.90;75.00;;;;;;5051941;28;20464;-68
2023/08/26 04:35:23;;;;;;;3.40;2.13;;;22.90;75.10;;;;;;5050800;28;20032;-68
2023/08/26 04:37:49;;;;;;;3.25;1.70;;;22.90;75.10;;;;;;5051676;28;20090;-68
2023/08/26 04:40:15;;;;;;;2.92;1.85;;;22.90;75.00;;;;;;5052447;28;20131;-68
2023/08/26 04:42:41;;;;;;;2.78;1.90;;;22.90;75.00;;;;;;5051573;28;20380;-68
2023/08/26 04:45:07;;;;;;;3.38;1.80;;;22.90;75.00;;;;;;5052277;28;20041;-68
2023/08/26 04:47:33;;;;;;;2.97;2.05;;;22.90;75.00;;;;;;5051041;28;20052;-68
2023/08/26 04:49:58;;;;;;;2.97;1.98;;;22.90;75.00;;;;;;5050116;28;20041;-68
2023/08/26 04:52:25;;;;;;;2.08;1.50;;;22.90;75.10;;;;;;5052196;28;20045;-68
2023/08/26 04:54:50;;;;;;;2.42;1.73;;;22.90;75.00;;;;;;5050486;28;20047;-68
2023/08/26 04:57:17;;;;;;;2.53;1.80;;;22.90;75.00;;;;;;5051493;28;20045;-68
2023/08/26 04:59:42;;;;;;;2.35;1.50;;;22.90;75.00;;;;;;5051860;28;20099;-67
2023/08/26 05:02:08;;;;;;;3.25;1.95;;;22.90;75.00;;;;;;5050898;28;20053;-68
2023/08/26 05:04:35;;;;;;;2.20;1.60;;;22.90;75.00;;;;;;5049327;28;20048;-68
2023/08/26 05:07:01;;;;;;;1.90;1.30;;;22.90;75.00;;;;;;5050976;28;20119;-68
2023/08/26 05:09:28;;;;;;;3.00;1.67;;;22.90;74.90;;;;;;5051004;28;20145;-68
2023/08/26 05:11:55;;;;;;;4.03;1.80;;;22.90;74.90;;;;;;5049990;28;20152;-68
2023/08/26 05:14:21;;;;;;;3.30;1.77;;;22.90;74.90;;;;;;5051873;28;20127;-68
2023/08/26 05:16:46;;;;;;;2.58;1.60;;;22.90;75.00;;;;;;5051550;28;20069;-67
2023/08/26 05:19:12;;;;;;;2.92;1.70;;;22.90;74.90;;;;;;5050790;28;20536;-68
2023/08/26 05:21:37;;;;;;;1.88;1.50;;;22.80;74.90;;;;;;5051987;28;20154;-68
2023/08/26 05:24:03;;;;;;;2.17;1.52;;;22.90;74.90;;;;;;5053961;28;20052;-68
2023/08/26 05:26:29;;;;;;;2.78;1.65;;;22.80;74.90;;;;;;5048583;28;20412;-68
2023/08/26 05:28:54;;;;;;;2.00;1.55;;;22.80;74.80;;;;;;5049648;28;20045;-67
2023/08/26 05:31:20;;;;;;;2.38;1.70;;;22.80;74.80;;;;;;5048891;28;20053;-68
2023/08/26 05:33:45;;;;;;;2.53;1.60;;;22.80;74.80;;;;;;5051653;28;20056;-68
2023/08/26 05:36:11;;;;;;;2.33;1.60;;;22.80;74.80;;;;;;5051395;28;20045;-69
2023/08/26 05:38:36;;;;;;;2.63;1.67;;;22.80;74.80;;;;;;5050533;28;20044;-69
2023/08/26 05:41:02;;;;;;;2.25;1.50;;;22.80;74.80;;;;;;5053197;28;20037;-68
2023/08/26 05:43:29;;;;;;;3.10;1.58;;;22.80;74.70;;;;;;5055152;28;20045;-68
2023/08/26 05:45:56;;;;;;;2.30;1.58;;;22.80;74.80;;;;;;5052924;28;20071;-68
2023/08/26 05:48:22;;;;;;;2.55;1.70;;;22.80;74.80;;;;;;5055420;28;20477;-68
2023/08/26 05:50:47;;;;;;;2.35;1.60;;;22.80;74.80;;;;;;5053325;28;20052;-68
2023/08/26 05:53:13;;;;;;;2.20;1.48;;;22.80;74.70;;;;;;5053275;28;20044;-68
2023/08/26 05:55:41;;;;;;;1.83;1.20;;;22.80;74.70;;;;;;5054729;28;20622;-68
2023/08/26 05:58:06;;;;;;;2.53;1.60;;;22.80;74.70;;;;;;5055104;28;20048;-68
2023/08/26 06:00:32;;;;;;;3.05;1.33;;;22.80;74.70;;;;;;5054240;28;20041;-68
2023/08/26 06:02:57;;;;;;;2.53;1.63;;;22.80;74.70;;;;;;5054719;28;20045;-68
2023/08/26 06:05:23;;;;;;;2.95;1.60;;;22.80;74.70;;;;;;5053443;28;20471;-68
2023/08/26 06:07:51;;;;;;;;;;;22.80;74.70;;;;;;5054228;28;20120;-68
2023/08/26 06:10:17;;;;;;;2.28;1.40;;;22.80;74.60;;;;;;5055163;28;20019;-68
2023/08/26 06:12:43;;;;;;;1.95;1.38;;;22.70;74.70;;;;;;5054180;28;20416;-68
2023/08/26 06:15:09;;;;;;;2.65;1.23;;;22.80;74.70;;;;;;5053367;28;20041;-68
2023/08/26 06:17:35;;;;;;;3.17;1.50;;;22.80;74.60;;;;;;5054517;28;20060;-68
2023/08/26 06:20:03;;;;;;;2.00;1.30;;;22.70;74.60;;;;;;5054551;28;20045;-68
2023/08/26 06:22:29;;;;;;;2.47;1.65;;;22.70;74.70;;;;;;5053947;28;20048;-68
2023/08/26 06:24:55;;;;;;;4.07;1.83;;;22.70;74.70;;;;;;5060949;28;20037;-66
2023/08/26 06:27:23;;;;;;;3.38;1.75;;;22.80;74.70;;;;;;5053274;28;20045;-67
2023/08/26 06:29:54;;;;;;;2.53;1.80;;;22.80;74.70;;;;;;5053154;28;20041;-75
2023/08/26 06:32:21;;;;;;;3.42;1.63;;;22.80;74.70;;;;;;5054349;28;20524;-66
2023/08/26 06:34:46;;;;;;;9.60;1.80;;;22.80;74.70;;;;;;5051905;28;20045;-66
2023/08/26 06:37:13;;;;;;;4.28;1.95;;;22.80;74.80;;;;;;5054120;28;20067;-66
2023/08/26 06:39:38;;;;;;;3.00;1.80;;;22.80;74.80;;;;;;5052718;28;20488;-68
2023/08/26 06:42:04;;;;;;;5.05;1.85;;;22.80;74.90;;;;;;5053358;28;20087;-68
2023/08/26 06:44:30;;;;;;;4.28;1.60;;;22.80;75.00;;;;;;5054438;28;20037;-67
2023/08/26 06:46:56;;;;;;;3.42;1.95;;;22.80;75.00;;;;;;5052608;28;20049;-67
2023/08/26 06:49:21;;;;;;;3.67;1.63;;;22.80;74.90;;;;;;5053500;28;20045;-66
2023/08/26 06:51:47;;;;;;;1.98;1.50;;;22.80;75.00;;;;;;5052534;28;20120;-68
2023/08/26 06:54:12;;;;;;;3.78;2.05;;;22.80;74.90;;;;;;5053626;28;20037;-67
2023/08/26 06:56:38;;;;;;;5.00;1.70;;;22.80;74.90;;;;;;5052861;28;20044;-68
2023/08/26 06:59:04;;;;;;;2.70;1.58;;;22.80;75.00;;;;;;5054102;28;20041;-67
2023/08/26 07:01:31;;;;;;;4.03;1.75;;;22.80;74.90;;;;;;5054079;28;20040;-69
2023/08/26 07:04:04;;;;;;;4.03;1.90;;;22.80;75.00;;;;;;5051158;28;20119;-66
2023/08/26 07:06:30;;;;;;;3.92;1.90;;;22.80;75.10;;;;;;5053674;28;20086;-66
2023/08/26 07:08:56;;;;;;;3.55;1.70;;;22.90;75.10;;;;;;5053178;28;20045;-67
2023/08/26 07:11:22;;;;;;;2.22;1.50;;;22.80;75.20;;;;;;5051519;28;20090;-67
2023/08/26 07:13:47;;;;;;;2.80;1.80;;;22.90;75.20;;;;;;5053291;28;20084;-66
2023/08/26 07:16:13;;;;;;;3.55;1.65;;;22.90;75.30;;;;;;5052277;28;20157;-66
2023/08/26 07:18:38;;;;;;;2.38;1.80;;;22.90;75.30;;;;;;5052449;28;20041;-65
2023/08/26 07:21:04;;;;;;;2.90;1.90;;;22.90;75.30;;;;;;5056405;28;20081;-65
2023/08/26 07:23:29;;;;;;;3.58;1.92;;;22.90;75.30;;;;;;5069282;28;20036;-67
2023/08/26 07:25:55;;;;;;;6.25;1.80;;;22.90;75.30;;;;;;5049822;28;20499;-66
2023/08/26 07:28:20;;;;;;;2.60;1.85;;;22.90;75.30;;;;;;5052209;28;20040;-66
2023/08/26 07:30:46;;;;;;;5.47;1.88;;;22.90;75.20;;;;;;5053161;28;20496;-67
2023/08/26 07:33:12;;;;;;;5.10;2.40;;;22.90;75.10;;;;;;5051508;28;20048;-65
2023/08/26 07:35:37;;;;;;;5.65;2.00;;;22.90;75.10;;;;;;5051996;28;20441;-66
2023/08/26 07:38:03;;;;;;;4.97;2.00;;;22.90;75.10;;;;;;5051631;28;20075;-66
2023/08/26 07:40:29;;;;;;;5.20;1.80;;;22.90;75.10;;;;;;5052660;28;20068;-66
2023/08/26 07:42:55;;;;;;;3.30;1.95;;;22.90;75.20;;;;;;5057575;28;20387;-66
2023/08/26 07:45:20;;;;;;;6.03;1.90;;;22.90;75.20;;;;;;5072194;28;20503;-67
2023/08/26 07:47:46;;;;;;;2.63;1.88;;;22.90;75.20;;;;;;5072236;28;20033;-67
2023/08/26 07:50:12;;;;;;;3.85;1.90;;;22.90;75.20;;;;;;5071799;28;20036;-68
2023/08/26 07:52:38;;;;;;;2.78;1.90;;;22.90;75.20;;;;;;5071908;28;20045;-67
2023/08/26 07:55:04;;;;;;;2.88;2.08;;;22.90;75.30;;;;;;5073030;28;20056;-67
2023/08/26 07:57:30;;;;;;;3.90;1.65;;;22.90;75.30;;;;;;5071515;28;20484;-65
2023/08/26 07:59:55;;;;;;;5.68;1.85;;;23.00;75.30;;;;;;5070117;28;20083;-67
2023/08/26 08:02:21;;;;;;;3.35;2.05;;;22.90;75.20;;;;;;5071102;28;20037;-66
2023/08/26 08:04:47;;;;;;;3.80;1.90;;;22.90;75.20;;;;;;5070298;28;20095;-67
2023/08/26 08:07:12;;;;;;;4.78;2.00;;;22.90;75.20;;;;;;5069982;28;20039;-67
2023/08/26 08:09:38;;;;;;;3.60;2.25;;;22.90;75.20;;;;;;5071440;28;20542;-67
2023/08/26 08:12:04;;;;;;;4.72;1.90;;;22.90;75.20;;;;;;5072137;28;20511;-66
2023/08/26 08:14:30;;;;;;;3.15;1.63;;;22.90;75.20;;;;;;5070641;28;20528;-66
2023/08/26 08:16:56;;;;;;;4.22;2.20;;;22.90;75.20;;;;;;5071981;28;20388;-66
2023/08/26 08:19:21;;;;;;;2.80;1.92;;;22.90;75.30;;;;;;5072229;28;20036;-66
2023/08/26 08:21:48;;;;;;;4.00;2.33;;;22.90;75.30;;;;;;5071159;28;20099;-65
2023/08/26 08:24:13;;;;;;;3.72;1.85;;;22.90;75.30;;;;;;5072642;28;20123;-66
2023/08/26 08:26:43;;;;;;;4.95;2.28;;;22.90;75.20;;;;;;5072534;28;20424;-67
2023/08/26 08:29:09;;;;;;;3.22;1.80;;;22.90;75.80;;;;;;5072010;28;20040;-66
2023/08/26 08:31:35;;;;;;;3.70;1.90;;;22.90;75.40;;;;;;5072109;28;20044;-66
2023/08/26 08:34:00;;;;;;;3.25;2.20;;;22.90;75.30;;;;;;5072179;28;20044;-66
2023/08/26 08:36:26;;;;;;;3.17;1.80;;;22.90;75.30;;;;;;5069741;28;20047;-66
2023/08/26 08:38:52;;;;;;;4.38;2.28;;;23.00;75.30;;;;;;5070484;28;20110;-66
2023/08/26 08:41:18;;;;;;;3.15;1.85;;;22.90;75.30;;;;;;5071835;28;20403;-67
2023/08/26 08:43:45;;;;;;;3.45;1.70;;;22.90;75.30;;;;;;5071251;28;20040;-66
2023/08/26 08:46:12;;;;;;;3.63;1.80;;;22.90;75.30;;;;;;5072506;28;20051;-65
2023/08/26 08:48:37;;;;;;;3.72;2.05;;;23.00;75.30;;;;;;5053400;28;20488;-66
2023/08/26 08:51:03;;;;;;;3.53;1.90;;;23.00;75.30;;;;;;5070652;28;20036;-67
2023/08/26 08:53:32;;;;;;;2.72;1.70;;;23.00;75.30;;;;;;5048482;28;20041;-67
2023/08/26 08:55:59;;;;;;;2.60;2.00;;;23.00;75.30;;;;;;5066420;28;20097;-67
2023/08/26 08:58:26;;;;;;;4.32;2.13;;;23.00;75.30;;;;;;5070561;28;20049;-71
2023/08/26 09:00:52;;;;;;;3.17;2.00;;;22.90;75.20;;;;;;5051975;28;20033;-69
2023/08/26 09:03:17;;;;;;;3.75;1.90;;;23.00;75.20;;;;;;5069021;28;20039;-68
2023/08/26 09:05:43;;;;;;;3.83;2.10;;;23.00;75.10;;;;;;5069503;28;20040;-68
2023/08/26 09:08:09;;;;;;;3.72;2.20;;;23.00;75.00;;;;;;5053373;28;20037;-68
2023/08/26 09:10:35;;;;;;;4.22;2.22;;;23.00;74.80;;;;;;5035897;28;20101;-69
2023/08/26 09:13:03;;;;;;;3.85;2.10;;;23.00;74.60;;;;;;5053791;28;20052;-66
2023/08/26 09:15:28;;;;;;;4.28;2.15;;;23.00;74.50;;;;;;5096420;28;20044;-66
2023/08/26 09:17:58;;;;;;;6.47;3.05;;;23.00;74.40;;;;;;5073248;28;20040;-67
2023/08/26 09:20:23;;;;;;;5.88;2.88;;;23.10;74.40;;;;;;5099747;28;20492;-66
2023/08/26 09:22:49;;;;;;;8.73;2.75;;;23.10;74.50;;;;;;5075039;28;20076;-67
2023/08/26 09:25:14;;;;;;;7.97;2.92;;;23.10;74.50;;;;;;5073374;28;20059;-67
2023/08/26 09:27:41;;;;;;;8.27;2.10;;;23.10;74.50;;;;;;5074982;28;20058;-67
2023/08/26 09:30:07;;;;;;;6.25;2.55;;;23.20;74.50;;;;;;5073049;28;20041;-66
2023/08/26 09:32:43;;;;;;;7.55;2.38;;;23.10;74.30;;;;;;5073796;28;20087;-67
2023/08/26 09:35:12;;;;;;;4.82;2.58;;;23.20;74.30;;;;;;5066701;28;20377;-68
2023/08/26 09:37:39;;;;;;;4.97;2.10;;;23.10;74.10;;;;;;5054322;28;20491;-68
2023/08/26 09:40:05;;;;;;;7.38;2.70;;;23.20;74.00;;;;;;5067843;28;20032;-67
2023/08/26 09:42:31;;;;;;;6.47;2.60;;;23.20;74.00;;;;;;5075071;28;20041;-68
2023/08/26 09:44:57;;;;;;;6.63;3.00;;;23.20;74.20;;;;;;5073154;28;20052;-67
2023/08/26 09:47:29;;;;;;;5.72;2.60;;;23.20;74.30;;;;;;5071721;28;20049;-66
2023/08/26 09:49:55;;;;;;;5.95;2.67;;;23.20;74.30;;;;;;5055264;28;20072;-68
2023/08/26 09:52:20;;;;;;;5.93;2.40;;;23.30;74.30;;;;;;5065023;28;20149;-68
2023/08/26 09:54:46;;;;;;;6.78;2.33;;;23.30;74.40;;;;;;5073833;28;20044;-68
2023/08/26 09:57:11;;;;;;;8.02;2.90;;;23.30;74.30;;;;;;5075154;28;20059;-67
2023/08/26 09:59:38;;;;;;;7.25;2.45;;;23.30;74.30;;;;;;5072810;28;20127;-68
2023/08/26 10:02:05;;;;;;;6.65;2.30;;;23.30;74.30;;;;;;5075031;28;20040;-67
2023/08/26 10:04:32;;;;;;;6.07;2.22;;;23.30;74.30;;;;;;5057053;28;20048;-67
2023/08/26 10:06:59;;;;;;;4.90;2.58;;;23.30;74.20;;;;;;5053691;28;20033;-68
2023/08/26 10:09:30;;;;;;;7.78;2.45;;;23.30;74.30;;;;;;5074484;28;20102;-67
2023/08/26 10:11:56;;;;;;;5.35;2.47;;;23.30;74.40;;;;;;5072344;28;20044;-67
2023/08/26 10:14:23;;;;;;;5.68;2.42;;;23.30;74.40;;;;;;5072764;28;20047;-65
2023/08/26 10:16:48;;;;;;;7.97;2.50;;;23.30;74.40;;;;;;5072858;28;20120;-66
2023/08/26 10:19:14;;;;;;;7.00;3.05;;;23.30;74.40;;;;;;5056770;28;20041;-67
2023/08/26 10:21:40;;;;;;;3.75;2.08;;;23.30;74.40;;;;;;5072081;28;20032;-66
2023/08/26 10:24:06;;;;;;;7.07;2.70;;;23.40;74.50;;;;;;5072700;28;20041;-66
2023/08/26 10:26:32;;;;;;;5.50;2.30;;;23.40;74.40;;;;;;5073826;28;20041;-66
2023/08/26 10:28:58;;;;;;;5.78;2.40;;;23.40;74.30;;;;;;5071690;28;20040;-66
2023/08/26 10:31:36;;;;;;;5.85;2.40;;;23.40;74.70;;;;;;5073554;28;20458;-66
2023/08/26 10:34:13;;;;;;;5.80;2.33;;;23.50;74.10;;;;;;5073945;28;20048;-66
2023/08/26 10:36:39;;;;;;;8.13;2.72;;;23.40;73.90;;;;;;5072657;28;20136;-66
2023/08/26 10:39:13;;;;;;;4.57;2.08;;;23.50;74.00;;;;;;5072311;28;20044;-71
2023/08/26 10:41:39;;;;;;;3.70;2.08;;;23.50;73.80;;;;;;5073102;28;20052;-66
2023/08/26 10:44:04;;;;;;;5.30;2.35;;;23.50;73.80;;;;;;5056376;28;20036;-67
2023/08/26 10:46:31;;;;;;;5.40;2.40;;;23.50;73.80;;;;;;5072961;28;20500;-65
2023/08/26 10:48:59;;;;;;;4.68;2.30;;;23.50;73.80;;;;;;5072997;28;20040;-66
2023/08/26 10:51:25;;;;;;;7.35;2.30;;;23.50;73.70;;;;;;5073557;28;20553;-66
2023/08/26 10:53:50;;;;;;;3.72;2.08;;;23.60;73.80;;;;;;5073301;28;20036;-65
2023/08/26 10:56:21;;;;;;;6.47;2.55;;;23.50;73.70;;;;;;5071531;28;20036;-65
2023/08/26 10:58:47;;;;;;;5.30;2.50;;;23.60;73.70;;;;;;5073351;28;20049;-67
2023/08/26 11:01:13;;;;;;;5.78;2.33;;;23.60;73.70;;;;;;5073931;28;20044;-65
2023/08/26 11:03:39;;;;;;;6.85;2.35;;;23.60;73.70;;;;;;5070604;28;20055;-65
2023/08/26 11:06:06;;;;;;;9.45;2.63;;;23.60;73.70;;;;;;5073147;28;20040;-70
2023/08/26 11:08:32;;;;;;;14.60;3.13;;;23.60;73.70;;;;;;5072409;28;20051;-67
2023/08/26 11:10:57;;;;;;;16.23;3.05;;;23.60;73.50;;;;;;5070714;28;20040;-64
2023/08/26 11:13:23;;;;;;;9.57;2.40;;;23.60;73.50;;;;;;5071882;28;20095;-65
2023/08/26 11:15:51;;;;;;;8.52;2.05;;;23.60;73.30;;;;;;5072019;28;20036;-63
2023/08/26 11:18:17;;;;;;;8.25;1.85;;;23.50;71.50;;;;;;5071520;28;20137;-63
2023/08/26 11:20:44;;;;;;;6.07;1.52;;;23.50;69.80;;;;;;5053997;28;20082;-65
2023/08/26 11:23:09;;;;;;;6.22;1.45;;;23.40;68.80;;;;;;5054470;28;20081;-63
2023/08/26 11:25:38;;;;;;;10.25;1.48;;;23.30;67.20;;;;;;5053573;28;20130;-66
2023/08/26 11:28:08;;;;;;;7.65;1.30;;;23.30;66.30;;;;;;5053676;28;20476;-66
2023/08/26 11:30:40;;;;;;;4.47;1.27;;;23.20;65.80;;;;;;5052551;28;20083;-66
2023/08/26 11:33:11;;;;;;;6.20;1.35;;;23.30;65.60;;;;;;5053416;28;20075;-66
2023/08/26 11:35:46;;;;;;;5.82;1.20;;;23.30;65.50;;;;;;5052636;28;20416;-68
2023/08/26 11:38:12;;;;;;;5.55;1.35;;;23.30;65.70;;;;;;5050582;28;20484;-67
2023/08/26 11:40:38;;;;;;;4.07;1.30;;;23.30;65.70;;;;;;5053191;28;20044;-68
2023/08/26 11:43:07;;;;;;;5.63;1.15;;;23.40;65.90;;;;;;5052124;28;20124;-67
2023/08/26 11:45:34;;;;;;;8.23;1.33;;;23.40;66.00;;;;;;5066747;28;20037;-69
2023/08/26 11:47:59;;;;;;;6.50;1.40;;;23.40;66.20;;;;;;5048373;28;20048;-68
2023/08/26 11:50:26;;;;;;;6.05;1.25;;;23.40;66.20;;;;;;5070404;28;20043;-68
2023/08/26 11:52:53;;;;;;;7.50;1.37;;;23.40;66.30;;;;;;5067838;28;20060;-68
2023/08/26 11:55:19;;;;;;;9.43;1.27;;;23.50;66.50;;;;;;5071260;28;20303;-68
2023/08/26 11:57:44;;;;;;;4.43;1.17;;;23.50;66.50;;;;;;5070906;28;20553;-68
2023/08/26 12:00:12;;;;;;;5.43;1.25;;;23.50;66.60;;;;;;5071701;28;20492;-68
2023/08/26 12:02:37;;;;;;;4.07;1.20;;;23.50;66.60;;;;;;5072125;28;20047;-68
2023/08/26 12:05:03;;;;;;;5.05;1.20;;;23.50;66.70;;;;;;5072068;28;20315;-68
2023/08/26 12:07:31;;;;;;;7.32;1.30;;;23.50;66.60;;;;;;5072059;28;20040;-68
2023/08/26 12:10:11;;;;;;;5.85;1.45;;;23.50;66.70;;;;;;5071868;28;20559;-69
2023/08/26 12:12:37;;;;;;;4.53;1.20;;;23.50;66.90;;;;;;5093513;28;20080;-69
2023/08/26 12:15:09;;;;;;;3.10;0.85;;;23.60;66.90;;;;;;5072349;28;20072;-68
2023/08/26 12:18:01;;;;;;;3.15;1.00;;;23.60;66.90;;;;;;5068350;28;20071;-69
2023/08/26 12:20:28;;;;;;;3.53;1.20;;;23.60;67.10;;;;;;5067847;28;20060;-69
2023/08/26 12:22:56;;;;;;;5.57;1.20;;;23.60;67.10;;;;;;5071956;28;20527;-69
2023/08/26 12:25:30;;;;;;;4.82;0.95;;;23.60;67.10;;;;;;5072332;28;20050;-69
2023/08/26 12:28:17;;;;;;;5.88;1.20;;;23.60;67.10;;;;;;5068814;28;20446;-69
2023/08/26 12:30:44;;;;;;;4.28;1.25;;;23.70;67.20;;;;;;5070557;28;20468;-69
2023/08/26 12:33:10;;;;;;;4.80;1.20;;;23.70;67.30;;;;;;5071080;28;20041;-69
2023/08/26 12:35:36;;;;;;;3.55;1.02;;;23.70;67.10;;;;;;5069639;28;20047;-69
2023/08/26 12:38:04;;;;;;;4.55;0.90;;;23.70;67.10;;;;;;5070223;28;20052;-68
2023/08/26 12:40:34;;;;;;;3.35;1.00;;;23.70;67.10;;;;;;5071237;28;20052;-68
2023/08/26 12:43:00;;;;;;;3.13;1.00;;;23.70;67.10;;;;;;5070967;28;20040;-68